createdAt,value
2022-08-26T00:03:56.679Z,23.30
2022-08-26T00:09:02.016Z,20.20
2022-08-26T00:14:08.768Z,21.77
2022-08-26T00:19:13.473Z,27.20
2022-08-26T00:24:21.453Z,26.85
2022-08-26T00:29:27.192Z,26.08
2022-08-26T00:34:32.037Z,21.75
2022-08-26T00:39:36.649Z,17.77
2022-08-26T00:44:42.935Z,20.92
2022-08-26T00:49:48.897Z,14.70
2022-08-26T00:55:01.577Z,15.32
2022-08-26T01:00:14.150Z,23.33
2022-08-26T01:05:20.771Z,15.32
2022-08-26T01:10:31.529Z,20.80
2022-08-26T01:15:42.035Z,25.98
2022-08-26T01:20:58.046Z,16.00
2022-08-26T01:26:19.615Z,25.77
2022-08-26T01:31:29.323Z,23.88
2022-08-26T01:36:36.042Z,20.90
2022-08-26T01:41:44.143Z,14.73
2022-08-26T01:46:51.205Z,15.00
2022-08-26T01:51:58.274Z,25.52
2022-08-26T01:57:05.183Z,19.55
2022-08-26T02:02:10.001Z,15.95
2022-08-26T02:07:14.834Z,20.20
2022-08-26T02:12:27.781Z,19.13
2022-08-26T02:17:40.065Z,21.15
2022-08-26T02:22:46.445Z,14.57
2022-08-26T02:27:53.446Z,21.00
2022-08-26T02:33:02.109Z,19.70
2022-08-26T02:38:11.081Z,20.40
2022-08-26T02:43:17.510Z,23.08
2022-08-26T02:48:23.623Z,23.05
2022-08-26T02:53:32.129Z,16.05
2022-08-26T02:58:41.917Z,22.17
2022-08-26T03:03:46.649Z,16.85
2022-08-26T03:08:56.278Z,17.38
2022-08-26T03:14:03.888Z,17.33
2022-08-26T03:19:10.605Z,16.10
2022-08-26T03:24:15.101Z,16.17
2022-08-26T03:29:37.856Z,15.32
2022-08-26T03:34:43.863Z,24.02
2022-08-26T03:39:48.400Z,22.15
2022-08-26T03:44:54.435Z,25.63
2022-08-26T03:49:59.768Z,17.63
2022-08-26T03:55:05.053Z,17.38
2022-08-26T04:00:18.472Z,15.07
2022-08-26T04:05:24.907Z,21.75
2022-08-26T04:10:29.737Z,14.27
2022-08-26T04:15:35.772Z,16.98
2022-08-26T04:20:41.053Z,28.10
2022-08-26T04:25:46.000Z,21.60
2022-08-26T04:30:52.351Z,28.27
2022-08-26T04:36:02.339Z,17.52
2022-08-26T04:41:14.916Z,24.52
2022-08-26T04:46:25.196Z,16.98
2022-08-26T04:51:29.745Z,21.92
2022-08-26T04:56:36.518Z,17.00
2022-08-26T05:01:46.230Z,19.75
2022-08-26T05:06:52.164Z,17.80
2022-08-26T05:11:57.434Z,21.65
2022-08-26T05:17:03.866Z,22.80
2022-08-26T05:22:13.079Z,14.60
2022-08-26T05:27:18.070Z,9.70
2022-08-26T05:32:24.577Z,15.85
2022-08-26T05:37:29.950Z,18.80
2022-08-26T05:42:36.627Z,16.65
2022-08-26T05:47:43.171Z,10.80
2022-08-26T05:52:47.575Z,22.67
2022-08-26T05:57:52.142Z,17.30
2022-08-26T06:02:58.963Z,16.40
2022-08-26T06:08:14.602Z,18.23
2022-08-26T06:13:19.982Z,18.05
2022-08-26T06:18:32.755Z,19.90
2022-08-26T06:23:55.474Z,19.15
2022-08-26T06:29:01.713Z,14.43
2022-08-26T06:34:10.967Z,18.40
2022-08-26T06:39:18.955Z,11.68
2022-08-26T06:49:31.427Z,14.70
2022-08-26T06:54:37.234Z,13.77
2022-08-26T06:59:44.392Z,16.42
2022-08-26T07:04:51.196Z,14.93
2022-08-26T07:09:56.265Z,12.88
2022-08-26T07:15:02.269Z,12.25
2022-08-26T07:20:12.465Z,9.70
2022-08-26T07:25:17.096Z,13.23
2022-08-26T07:30:24.798Z,10.00
2022-08-26T07:35:30.591Z,19.73
2022-08-26T07:40:36.120Z,20.38
2022-08-26T07:45:52.792Z,13.18
2022-08-26T07:50:59.625Z,10.10
2022-08-26T07:56:05.094Z,15.07
2022-08-26T08:01:09.877Z,9.77
2022-08-26T08:06:16.608Z,18.02
2022-08-26T08:11:22.376Z,10.50
2022-08-26T08:16:27.334Z,16.48
2022-08-26T08:21:34.299Z,15.63
2022-08-26T08:26:39.065Z,15.73
2022-08-26T08:31:56.524Z,14.27
2022-08-26T08:37:10.620Z,16.15
2022-08-26T08:42:33.593Z,10.55
2022-08-26T08:47:43.754Z,19.48
2022-08-26T08:53:00.361Z,7.93
2022-08-26T08:58:10.602Z,10.05
2022-08-26T09:03:33.965Z,11.82
2022-08-26T09:08:41.586Z,12.50
2022-08-26T09:13:56.131Z,12.25
2022-08-26T09:19:19.371Z,11.13
2022-08-26T09:24:28.565Z,13.70
2022-08-26T09:29:44.385Z,17.25
2022-08-26T09:34:58.412Z,14.30
2022-08-26T09:40:27.041Z,19.70
2022-08-26T09:45:39.982Z,9.85
2022-08-26T09:50:56.281Z,11.30
2022-08-26T09:56:18.113Z,11.57
2022-08-26T10:01:32.917Z,10.50
2022-08-26T10:06:42.210Z,12.13
2022-08-26T10:11:53.913Z,6.47
2022-08-26T10:17:05.522Z,11.27
2022-08-26T10:22:16.861Z,13.07
2022-08-26T10:27:33.227Z,9.45
2022-08-26T10:32:43.484Z,12.90
2022-08-26T10:37:54.113Z,12.48
2022-08-26T10:43:11.442Z,12.93
2022-08-26T10:48:22.960Z,5.90
2022-08-26T10:53:39.738Z,11.85
2022-08-26T10:59:01.392Z,6.70
2022-08-26T11:04:14.969Z,18.00
2022-08-26T11:09:47.227Z,6.10
2022-08-26T11:14:58.898Z,6.40
2022-08-26T11:20:09.265Z,4.15
2022-08-26T11:25:19.822Z,5.88
2022-08-26T11:30:48.229Z,10.90
2022-08-26T11:36:12.057Z,7.25
2022-08-26T11:41:24.857Z,10.45
2022-08-26T11:46:37.996Z,7.80
2022-08-26T11:51:48.274Z,7.35
2022-08-26T11:56:54.398Z,12.43
2022-08-26T12:02:02.585Z,7.50
2022-08-26T12:07:09.116Z,9.60
2022-08-26T12:12:16.540Z,6.57
2022-08-26T12:17:29.826Z,15.48
2022-08-26T12:22:39.059Z,9.27
2022-08-26T12:27:53.599Z,10.27
2022-08-26T12:33:22.760Z,14.02
2022-08-26T12:38:29.642Z,11.77
2022-08-26T12:43:45.813Z,6.07
2022-08-26T12:48:53.304Z,6.13
2022-08-26T12:53:59.020Z,5.53
2022-08-26T12:59:12.257Z,13.27
2022-08-26T13:04:40.527Z,12.80
2022-08-26T13:09:45.404Z,4.80
2022-08-26T13:14:51.096Z,5.70
2022-08-26T13:20:03.513Z,4.78
2022-08-26T13:25:09.537Z,7.20
2022-08-26T13:30:15.852Z,4.43
2022-08-26T13:35:22.045Z,9.15
2022-08-26T13:40:28.466Z,9.13
2022-08-26T13:45:36.534Z,9.32
2022-08-26T13:50:42.328Z,4.38
2022-08-26T13:55:48.228Z,5.65
2022-08-26T14:00:52.842Z,9.88
2022-08-26T14:05:59.793Z,8.00
2022-08-26T14:11:04.652Z,12.20
2022-08-26T14:16:13.670Z,9.20
2022-08-26T14:21:20.975Z,9.55
2022-08-26T14:26:28.799Z,10.85
2022-08-26T14:31:38.075Z,6.82
2022-08-26T14:36:44.849Z,9.45
2022-08-26T14:41:53.893Z,5.47
2022-08-26T14:47:02.745Z,5.20
2022-08-26T14:52:08.942Z,11.33
2022-08-26T14:57:17.281Z,8.63
2022-08-26T15:02:32.329Z,11.77
2022-08-26T15:07:40.724Z,9.50
2022-08-26T15:12:47.134Z,6.05
2022-08-26T15:17:51.784Z,6.82
2022-08-26T15:22:59.004Z,4.75
2022-08-26T15:28:10.789Z,7.85
2022-08-26T15:33:15.889Z,7.15
2022-08-26T15:38:21.700Z,9.07
2022-08-26T15:43:29.039Z,4.50
2022-08-26T15:48:33.953Z,8.90
2022-08-26T15:53:39.750Z,8.20
2022-08-26T15:58:44.767Z,7.40
2022-08-26T16:09:28.177Z,5.85
2022-08-26T16:14:42.347Z,9.32
2022-08-26T16:19:47.253Z,8.50
2022-08-26T16:24:58.175Z,10.35
2022-08-26T16:30:02.993Z,5.25
2022-08-26T16:35:09.883Z,7.75
2022-08-26T16:40:15.985Z,5.13
2022-08-26T16:45:21.164Z,7.82
2022-08-26T16:50:26.095Z,7.60
2022-08-26T16:55:32.516Z,5.85
2022-08-26T17:00:38.242Z,7.03
2022-08-26T17:05:42.602Z,5.13
2022-08-26T17:10:48.875Z,7.70
2022-08-26T17:16:00.341Z,10.27
2022-08-26T17:21:11.886Z,10.18
2022-08-26T17:26:18.204Z,6.32
2022-08-26T17:31:24.894Z,8.38
2022-08-26T17:36:29.229Z,16.63
2022-08-26T17:41:35.133Z,8.93
2022-08-26T17:46:39.812Z,7.63
2022-08-26T17:51:44.377Z,12.05
2022-08-26T17:56:50.523Z,13.82
2022-08-26T18:01:55.696Z,7.32
2022-08-26T18:07:00.620Z,8.02
2022-08-26T18:12:07.796Z,14.27
2022-08-26T18:17:12.615Z,7.20
2022-08-26T18:22:23.795Z,12.25
2022-08-26T18:27:29.895Z,18.02
2022-08-26T18:32:34.914Z,9.65
2022-08-26T18:37:39.493Z,8.43
2022-08-26T18:42:45.951Z,10.27
2022-08-26T18:47:54.119Z,10.52
2022-08-26T18:52:58.822Z,9.82
2022-08-26T18:58:05.040Z,11.95
2022-08-26T19:03:15.581Z,12.15
2022-08-26T19:08:23.872Z,7.70
2022-08-26T19:13:30.637Z,8.27
2022-08-26T19:18:35.079Z,11.65
2022-08-26T19:23:41.704Z,9.60
2022-08-26T19:28:49.736Z,17.92
2022-08-26T19:33:54.636Z,14.07
2022-08-26T19:39:00.608Z,13.02
2022-08-26T19:44:10.784Z,7.25
2022-08-26T19:49:15.896Z,8.68
2022-08-26T19:54:22.857Z,9.95
2022-08-26T19:59:29.412Z,7.53
2022-08-26T20:04:34.329Z,9.30
2022-08-26T20:09:40.173Z,7.80
2022-08-26T20:14:46.380Z,9.93
2022-08-26T20:20:28.459Z,17.75
2022-08-26T20:25:33.929Z,9.30
2022-08-26T20:30:40.421Z,6.20
2022-08-26T20:35:45.069Z,10.32
2022-08-26T20:40:51.318Z,10.18
2022-08-26T20:46:03.215Z,10.98
2022-08-26T20:51:12.963Z,11.68
2022-08-26T20:56:22.159Z,11.35
2022-08-26T21:01:34.753Z,10.93
2022-08-26T21:06:40.165Z,11.13
2022-08-26T21:11:47.389Z,29.20
2022-08-26T21:16:53.859Z,20.20
2022-08-26T21:22:00.012Z,19.35
2022-08-26T21:27:04.570Z,14.85
2022-08-26T21:32:10.611Z,16.92
2022-08-26T21:37:19.978Z,18.73
2022-08-26T21:42:27.007Z,19.95
2022-08-26T21:47:33.485Z,8.50
2022-08-26T21:52:39.623Z,8.48
2022-08-26T21:57:44.533Z,12.75
2022-08-26T22:02:50.876Z,14.52
2022-08-26T22:07:55.556Z,12.68
2022-08-26T22:13:00.229Z,11.75
2022-08-26T22:18:09.914Z,7.65
2022-08-26T22:23:14.986Z,13.88
2022-08-26T22:28:20.334Z,13.88
2022-08-26T22:33:27.085Z,9.75
2022-08-26T22:38:32.442Z,14.98
2022-08-26T22:43:38.872Z,8.95
2022-08-26T22:48:44.516Z,13.73
2022-08-26T22:53:49.510Z,11.00
2022-08-26T22:58:53.853Z,12.95
2022-08-26T23:03:59.613Z,11.50
2022-08-26T23:09:04.959Z,10.85
2022-08-26T23:14:09.839Z,13.00
2022-08-26T23:19:18.213Z,9.20
2022-08-26T23:24:23.051Z,11.73
2022-08-26T23:29:27.741Z,8.15
2022-08-26T23:34:51.015Z,13.25
2022-08-26T23:39:56.573Z,13.23
2022-08-26T23:45:01.335Z,14.30
2022-08-26T23:50:09.414Z,13.40
2022-08-26T23:55:15.179Z,11.07
